createdAt,value
2018-03-29T00:00:27.394Z,76.25
2018-03-29T00:02:53.761Z,82.34
2018-03-29T00:05:20.132Z,83.58
2018-03-29T00:07:46.498Z,80.39
2018-03-29T00:10:12.861Z,78.56
2018-03-29T00:12:39.247Z,81.25
2018-03-29T00:15:05.638Z,83.10
2018-03-29T00:17:32.059Z,79.72
2018-03-29T00:19:58.434Z,77.83
2018-03-29T00:22:24.839Z,78.50
2018-03-29T00:24:51.238Z,77.73
2018-03-29T00:27:17.622Z,76.21
2018-03-29T00:29:44.019Z,76.25
2018-03-29T00:32:10.394Z,75.55
2018-03-29T00:34:36.763Z,75.84
2018-03-29T00:37:03.130Z,76.31
2018-03-29T00:39:29.489Z,77.30
2018-03-29T00:41:56.280Z,76.59
2018-03-29T00:44:22.636Z,75.89
2018-03-29T00:46:49.130Z,77.08
2018-03-29T00:49:15.545Z,77.59
2018-03-29T00:51:41.981Z,77.52
2018-03-29T00:54:08.366Z,77.21
2018-03-29T00:56:34.726Z,77.98
2018-03-29T00:59:01.085Z,78.32
2018-03-29T01:01:27.467Z,78.71
2018-03-29T01:03:53.841Z,78.55
2018-03-29T01:06:21.215Z,78.60
2018-03-29T01:08:47.586Z,78.64
2018-03-29T01:11:14.013Z,78.87
2018-03-29T01:13:40.387Z,79.97
2018-03-29T01:16:06.928Z,79.46
2018-03-29T01:18:33.338Z,79.80
2018-03-29T01:20:59.761Z,79.76
2018-03-29T01:23:26.234Z,78.91
2018-03-29T01:25:52.588Z,78.66
2018-03-29T01:28:18.990Z,78.32
2018-03-29T01:30:45.383Z,79.72
2018-03-29T01:33:11.750Z,81.01
2018-03-29T01:35:38.126Z,80.24
2018-03-29T01:38:04.561Z,80.85
2018-03-29T01:40:30.929Z,79.95
2018-03-29T01:42:57.367Z,80.29
2018-03-29T01:45:23.778Z,80.09
2018-03-29T01:47:50.238Z,80.75
2018-03-29T01:50:16.636Z,79.62
2018-03-29T01:52:43.085Z,80.40
2018-03-29T01:55:09.448Z,80.58
2018-03-29T01:57:35.862Z,80.59
2018-03-29T02:00:02.342Z,80.28
2018-03-29T02:02:28.819Z,80.22
2018-03-29T02:04:55.241Z,80.26
2018-03-29T02:07:21.628Z,79.77
2018-03-29T02:09:48.174Z,80.08
2018-03-29T02:12:14.626Z,81.77
2018-03-29T02:14:41.078Z,81.47
2018-03-29T02:17:07.490Z,79.61
2018-03-29T02:19:33.952Z,79.05
2018-03-29T02:22:00.386Z,82.26
2018-03-29T02:24:26.777Z,79.80
2018-03-29T02:26:53.225Z,78.40
2018-03-29T02:29:19.601Z,80.15
2018-03-29T02:31:45.988Z,79.85
2018-03-29T02:34:12.362Z,79.26
2018-03-29T02:36:38.763Z,79.48
2018-03-29T02:39:05.190Z,79.23
2018-03-29T02:41:31.632Z,79.71
2018-03-29T02:43:58.044Z,79.79
2018-03-29T02:46:24.399Z,79.97
2018-03-29T02:48:50.798Z,79.90
2018-03-29T02:51:17.192Z,80.03
2018-03-29T02:53:43.554Z,80.02
2018-03-29T02:56:09.922Z,80.44
2018-03-29T02:58:36.291Z,81.36
2018-03-29T03:01:02.718Z,81.46
2018-03-29T03:03:29.070Z,82.11
2018-03-29T03:05:55.562Z,82.07
2018-03-29T03:08:22.060Z,81.66
2018-03-29T03:10:48.455Z,81.72
2018-03-29T03:13:14.828Z,81.49
2018-03-29T03:15:41.260Z,81.76
2018-03-29T03:18:07.658Z,81.82
2018-03-29T03:20:34.058Z,81.56
2018-03-29T03:23:00.436Z,81.95
2018-03-29T03:25:26.796Z,81.29
2018-03-29T03:27:53.258Z,82.00
2018-03-29T03:30:19.846Z,81.85
2018-03-29T03:32:46.246Z,81.62
2018-03-29T03:35:12.633Z,81.24
2018-03-29T03:37:39.058Z,80.78
2018-03-29T03:40:05.466Z,81.64
2018-03-29T03:42:32.019Z,81.28
2018-03-29T03:44:58.440Z,80.79
2018-03-29T03:47:24.821Z,80.64
2018-03-29T03:49:51.279Z,81.83
2018-03-29T03:52:17.678Z,81.61
2018-03-29T03:54:44.077Z,81.34
2018-03-29T03:57:10.453Z,82.13
2018-03-29T03:59:36.845Z,82.50
2018-03-29T04:02:03.236Z,81.88
2018-03-29T04:04:29.606Z,81.58
2018-03-29T04:06:55.974Z,81.60
2018-03-29T04:09:22.417Z,82.64
2018-03-29T04:11:48.830Z,82.61
2018-03-29T04:14:15.210Z,82.56
2018-03-29T04:16:41.841Z,82.14
2018-03-29T04:19:08.404Z,81.89
2018-03-29T04:21:34.885Z,81.70
2018-03-29T04:24:01.267Z,81.56
2018-03-29T04:26:27.712Z,81.62
2018-03-29T04:28:54.080Z,81.85
2018-03-29T04:31:20.470Z,81.90
2018-03-29T04:33:46.834Z,82.43
2018-03-29T04:36:13.189Z,82.36
2018-03-29T04:38:39.569Z,82.28
2018-03-29T04:41:06.004Z,82.71
2018-03-29T04:43:32.566Z,82.78
2018-03-29T04:45:58.981Z,82.48
2018-03-29T04:48:25.414Z,82.46
2018-03-29T04:50:51.850Z,82.87
2018-03-29T04:53:18.361Z,82.45
2018-03-29T04:55:44.797Z,82.11
2018-03-29T04:58:11.174Z,81.89
2018-03-29T05:00:37.565Z,82.35
2018-03-29T05:03:03.996Z,81.75
2018-03-29T05:05:30.391Z,82.57
2018-03-29T05:07:56.770Z,81.86
2018-03-29T05:10:23.174Z,81.12
2018-03-29T05:12:49.546Z,81.78
2018-03-29T05:15:15.969Z,81.29
2018-03-29T05:17:42.354Z,81.32
2018-03-29T05:20:08.812Z,81.44
2018-03-29T05:22:35.489Z,81.08
2018-03-29T05:25:01.921Z,80.63
2018-03-29T05:27:28.386Z,80.88
2018-03-29T05:29:54.770Z,80.71
2018-03-29T05:32:21.150Z,79.75
2018-03-29T05:34:47.568Z,79.97
2018-03-29T05:37:14.038Z,80.75
2018-03-29T05:39:40.454Z,80.50
2018-03-29T05:42:06.825Z,78.55
2018-03-29T05:44:33.314Z,78.26
2018-03-29T05:46:59.767Z,76.80
2018-03-29T05:49:26.145Z,77.11
2018-03-29T05:51:52.638Z,76.61
2018-03-29T05:54:19.034Z,76.37
2018-03-29T05:56:45.410Z,75.72
2018-03-29T05:59:11.761Z,75.55
2018-03-29T06:01:38.188Z,76.15
2018-03-29T06:04:04.724Z,76.28
2018-03-29T06:06:31.133Z,75.55
2018-03-29T06:08:57.499Z,75.17
2018-03-29T06:11:23.866Z,75.67
2018-03-29T06:13:56.425Z,75.05
2018-03-29T06:16:22.830Z,75.35
2018-03-29T06:18:49.247Z,75.21
2018-03-29T06:21:15.618Z,75.47
2018-03-29T06:23:42.130Z,74.01
2018-03-29T06:26:08.845Z,72.33
2018-03-29T06:28:35.240Z,70.87
2018-03-29T06:31:01.574Z,72.47
2018-03-29T06:33:27.990Z,73.41
2018-03-29T06:35:54.437Z,71.41
2018-03-29T06:38:20.802Z,70.12
2018-03-29T06:40:47.166Z,70.99
2018-03-29T06:43:13.597Z,70.95
2018-03-29T06:45:39.965Z,69.50
2018-03-29T06:48:06.318Z,68.21
2018-03-29T06:50:32.703Z,69.45
2018-03-29T06:52:59.069Z,71.83
2018-03-29T06:55:25.558Z,68.15
2018-03-29T06:57:51.923Z,68.24
2018-03-29T07:00:18.302Z,68.42
2018-03-29T07:02:44.674Z,67.73
2018-03-29T07:05:11.042Z,67.75
2018-03-29T07:07:37.456Z,68.91
2018-03-29T07:10:03.945Z,68.28
2018-03-29T07:12:30.339Z,66.89
2018-03-29T07:14:56.866Z,69.57
2018-03-29T07:17:23.215Z,68.89
2018-03-29T07:19:49.593Z,69.92
2018-03-29T07:22:15.969Z,69.12
2018-03-29T07:24:42.330Z,65.83
2018-03-29T07:27:08.702Z,64.48
2018-03-29T07:29:35.054Z,64.02
2018-03-29T07:32:01.420Z,65.19
2018-03-29T07:34:27.796Z,66.53
2018-03-29T07:36:54.191Z,64.53
2018-03-29T07:39:20.729Z,66.32
2018-03-29T07:41:50.314Z,65.51
2018-03-29T07:44:24.411Z,66.11
2018-03-29T07:46:53.261Z,66.00
2018-03-29T07:49:19.791Z,64.51
2018-03-29T07:51:46.153Z,62.56
2018-03-29T07:54:12.505Z,60.82
2018-03-29T07:56:38.882Z,64.18
2018-03-29T07:59:05.274Z,60.86
2018-03-29T08:01:31.649Z,60.31
2018-03-29T08:03:58.031Z,62.61
2018-03-29T08:06:24.574Z,63.09
2018-03-29T08:08:50.950Z,59.01
2018-03-29T08:11:17.336Z,57.00
2018-03-29T08:13:43.698Z,57.82
2018-03-29T08:16:10.062Z,56.32
2018-03-29T08:18:36.485Z,56.28
2018-03-29T08:21:02.846Z,57.64
2018-03-29T08:23:29.191Z,53.15
2018-03-29T08:25:55.571Z,57.56
2018-03-29T08:28:22.004Z,53.70
2018-03-29T08:30:48.374Z,52.18
2018-03-29T08:33:14.750Z,54.89
2018-03-29T08:35:41.138Z,54.01
2018-03-29T08:38:07.494Z,53.81
2018-03-29T08:40:33.889Z,53.25
2018-03-29T08:43:00.302Z,53.33
2018-03-29T08:45:26.670Z,56.68
2018-03-29T08:47:53.039Z,52.50
2018-03-29T08:50:19.659Z,51.70
2018-03-29T08:52:46.315Z,53.86
2018-03-29T08:55:12.725Z,49.23
2018-03-29T08:57:39.101Z,48.98
2018-03-29T09:00:05.717Z,54.71
2018-03-29T09:02:32.134Z,50.07
2018-03-29T09:04:58.870Z,49.24
2018-03-29T09:07:25.239Z,58.99
2018-03-29T09:09:51.842Z,50.92
2018-03-29T09:12:18.217Z,50.52
2018-03-29T09:14:44.614Z,52.72
2018-03-29T09:17:11.002Z,52.19
2018-03-29T09:19:37.576Z,51.48
2018-03-29T09:22:04.106Z,55.96
2018-03-29T09:24:30.470Z,48.27
2018-03-29T09:26:56.869Z,52.59
2018-03-29T09:29:23.234Z,48.79
2018-03-29T09:31:49.613Z,54.79
2018-03-29T09:34:16.113Z,48.16
2018-03-29T09:36:42.642Z,47.26
2018-03-29T09:39:09.038Z,47.85
2018-03-29T09:41:35.714Z,47.56
2018-03-29T09:44:02.081Z,45.62
2018-03-29T09:46:28.485Z,47.68
2018-03-29T09:48:54.874Z,53.77
2018-03-29T09:51:21.344Z,47.42
2018-03-29T09:53:47.692Z,49.57
2018-03-29T09:56:14.073Z,48.95
2018-03-29T09:58:40.529Z,51.83
2018-03-29T10:01:06.962Z,47.53
2018-03-29T10:03:39.595Z,50.33
2018-03-29T10:06:06.077Z,46.65
2018-03-29T10:08:32.481Z,47.55
2018-03-29T10:10:59.019Z,50.41
2018-03-29T10:13:25.413Z,53.92
2018-03-29T10:15:51.942Z,54.92
2018-03-29T10:18:18.304Z,55.80
2018-03-29T10:20:44.733Z,50.38
2018-03-29T10:23:11.140Z,46.96
2018-03-29T10:25:37.618Z,45.35
2018-03-29T10:28:04.014Z,51.60
2018-03-29T10:30:30.673Z,51.60
2018-03-29T10:32:57.089Z,51.06
2018-03-29T10:35:23.482Z,47.91
2018-03-29T10:37:54.300Z,56.50
2018-03-29T10:40:54.246Z,53.44
2018-03-29T10:43:21.203Z,45.65
2018-03-29T10:45:49.538Z,46.47
2018-03-29T10:48:16.913Z,42.11
2018-03-29T10:50:46.038Z,50.12
2018-03-29T10:53:21.799Z,43.66
2018-03-29T10:55:51.421Z,41.39
2018-03-29T10:58:18.002Z,48.54
2018-03-29T11:00:44.481Z,40.44
2018-03-29T11:03:11.089Z,41.38
2018-03-29T11:05:37.622Z,50.29
2018-03-29T11:08:04.178Z,40.97
2018-03-29T11:10:30.646Z,43.91
2018-03-29T11:12:57.014Z,41.35
2018-03-29T11:15:23.458Z,38.62
2018-03-29T11:17:49.843Z,36.49
2018-03-29T11:20:16.290Z,36.69
2018-03-29T11:22:42.685Z,40.94
2018-03-29T11:25:09.154Z,48.96
2018-03-29T11:27:35.577Z,50.04
2018-03-29T11:30:02.186Z,43.40
2018-03-29T11:32:28.678Z,37.63
2018-03-29T11:34:55.097Z,44.96
2018-03-29T11:37:21.754Z,38.14
2018-03-29T11:39:48.169Z,35.31
2018-03-29T11:42:14.666Z,43.46
2018-03-29T11:44:41.158Z,31.75
2018-03-29T11:47:07.571Z,49.74
2018-03-29T11:49:34.007Z,37.94
2018-03-29T11:52:00.510Z,37.30
2018-03-29T11:54:26.904Z,34.81
2018-03-29T11:56:53.326Z,37.49
2018-03-29T11:59:19.829Z,41.43
2018-03-29T12:01:46.214Z,40.83
2018-03-29T12:04:12.730Z,40.77
2018-03-29T12:06:39.185Z,47.46
2018-03-29T12:09:05.806Z,43.76
2018-03-29T12:11:32.357Z,36.45
2018-03-29T12:13:58.798Z,35.98
2018-03-29T12:16:25.258Z,36.63
2018-03-29T12:18:51.738Z,40.22
2018-03-29T12:21:18.178Z,36.83
2018-03-29T12:23:44.593Z,36.46
2018-03-29T12:26:11.146Z,39.62
2018-03-29T12:28:37.569Z,38.01
2018-03-29T12:31:04.087Z,39.35
2018-03-29T12:33:30.503Z,42.58
2018-03-29T12:35:56.998Z,41.08
2018-03-29T12:38:23.458Z,41.86
2018-03-29T12:40:49.861Z,43.52
2018-03-29T12:43:16.242Z,39.20
2018-03-29T12:45:42.671Z,38.77
2018-03-29T12:48:09.200Z,44.70
2018-03-29T12:50:35.626Z,41.87
2018-03-29T12:53:02.033Z,38.90
2018-03-29T12:55:38.554Z,40.96
2018-03-29T12:58:11.784Z,38.52
2018-03-29T13:00:38.271Z,40.06
2018-03-29T13:03:04.749Z,40.80
2018-03-29T13:05:31.170Z,48.86
2018-03-29T13:07:57.605Z,42.23
2018-03-29T13:10:24.066Z,41.38
2018-03-29T13:12:50.611Z,42.78
2018-03-29T13:15:17.050Z,36.92
2018-03-29T13:17:43.417Z,38.72
2018-03-29T13:20:09.865Z,41.36
2018-03-29T13:22:36.409Z,39.81
2018-03-29T13:25:02.958Z,39.32
2018-03-29T13:27:29.414Z,48.40
2018-03-29T13:29:55.806Z,43.97
2018-03-29T13:32:22.268Z,51.32
2018-03-29T13:34:48.738Z,42.57
2018-03-29T13:37:15.246Z,38.11
2018-03-29T13:39:41.633Z,39.47
2018-03-29T13:42:08.037Z,36.84
2018-03-29T13:44:34.516Z,36.31
2018-03-29T13:47:01.013Z,37.04
2018-03-29T13:49:27.513Z,36.76
2018-03-29T13:51:53.882Z,41.00
2018-03-29T13:54:20.290Z,46.04
2018-03-29T13:56:46.704Z,34.31
2018-03-29T13:59:13.122Z,33.03
2018-03-29T14:01:39.546Z,32.74
2018-03-29T14:04:06.044Z,34.50
2018-03-29T14:06:32.539Z,34.03
2018-03-29T14:08:59.028Z,33.27
2018-03-29T14:11:25.509Z,45.95
2018-03-29T14:13:51.948Z,36.13
2018-03-29T14:16:18.314Z,33.42
2018-03-29T14:18:44.772Z,32.93
2018-03-29T14:21:11.141Z,33.36
2018-03-29T14:23:37.935Z,32.06
2018-03-29T14:26:04.547Z,35.68
2018-03-29T14:28:30.930Z,33.46
2018-03-29T14:30:57.549Z,33.94
2018-03-29T14:33:23.954Z,35.67
2018-03-29T14:35:50.608Z,32.27
2018-03-29T14:38:17.286Z,36.56
2018-03-29T14:40:43.813Z,33.87
2018-03-29T14:43:10.302Z,44.24
2018-03-29T14:45:36.794Z,37.00
2018-03-29T14:48:03.214Z,39.10
2018-03-29T14:50:29.641Z,33.07
2018-03-29T14:52:56.150Z,35.18
2018-03-29T14:55:22.594Z,39.26
2018-03-29T14:57:49.022Z,50.63
2018-03-29T15:00:16.237Z,34.65
2018-03-29T15:02:42.701Z,34.45
2018-03-29T15:05:09.150Z,37.99
2018-03-29T15:07:35.662Z,42.07
2018-03-29T15:10:02.145Z,41.13
2018-03-29T15:12:28.557Z,34.34
2018-03-29T15:14:54.934Z,40.48
2018-03-29T15:17:21.386Z,39.22
2018-03-29T15:19:47.865Z,42.28
2018-03-29T15:22:14.286Z,40.06
2018-03-29T15:24:40.706Z,38.91
2018-03-29T15:27:07.142Z,48.05
2018-03-29T15:29:33.628Z,39.50
2018-03-29T15:32:00.146Z,36.03
2018-03-29T15:34:26.654Z,43.33
2018-03-29T15:36:53.025Z,39.19
2018-03-29T15:39:19.443Z,37.81
2018-03-29T15:41:45.873Z,42.74
2018-03-29T15:44:12.274Z,37.14
2018-03-29T15:46:38.765Z,36.21
2018-03-29T15:49:05.174Z,45.75
2018-03-29T15:51:31.569Z,46.07
2018-03-29T15:53:58.007Z,41.93
2018-03-29T15:56:24.434Z,37.19
2018-03-29T15:58:50.852Z,41.38
2018-03-29T16:01:17.353Z,38.92
2018-03-29T16:03:43.778Z,37.27
2018-03-29T16:06:10.218Z,36.99
2018-03-29T16:08:36.710Z,36.95
2018-03-29T16:11:03.181Z,38.06
2018-03-29T16:13:29.654Z,39.87
2018-03-29T16:15:56.121Z,46.02
2018-03-29T16:18:22.510Z,40.77
2018-03-29T16:20:48.941Z,40.40
2018-03-29T16:23:15.390Z,45.88
2018-03-29T16:25:41.738Z,44.89
2018-03-29T16:28:08.117Z,40.64
2018-03-29T16:30:34.678Z,45.05
2018-03-29T16:33:01.085Z,41.28
2018-03-29T16:35:27.474Z,42.41
2018-03-29T16:37:53.967Z,43.27
2018-03-29T16:40:20.330Z,42.60
2018-03-29T16:42:46.829Z,42.55
2018-03-29T16:45:13.226Z,42.10
2018-03-29T16:47:39.681Z,42.04
2018-03-29T16:50:06.133Z,42.90
2018-03-29T16:52:32.510Z,43.56
2018-03-29T16:54:58.996Z,43.64
2018-03-29T16:57:25.443Z,44.10
2018-03-29T16:59:51.841Z,46.28
2018-03-29T17:02:18.257Z,45.56
2018-03-29T17:04:44.754Z,46.12
2018-03-29T17:07:11.100Z,46.87
2018-03-29T17:09:37.534Z,46.59
2018-03-29T17:12:03.986Z,46.62
2018-03-29T17:14:30.441Z,47.31
2018-03-29T17:16:56.898Z,47.90
2018-03-29T17:19:23.373Z,47.67
2018-03-29T17:21:49.830Z,47.97
2018-03-29T17:24:16.245Z,48.67
2018-03-29T17:26:42.856Z,48.86
2018-03-29T17:29:09.301Z,48.89
2018-03-29T17:31:35.779Z,49.50
2018-03-29T17:34:02.177Z,49.39
2018-03-29T17:36:28.650Z,48.73
2018-03-29T17:38:55.106Z,49.66
2018-03-29T17:41:21.497Z,49.67
2018-03-29T17:43:47.941Z,49.57
2018-03-29T17:46:14.447Z,50.07
2018-03-29T17:48:40.898Z,50.12
2018-03-29T17:51:07.350Z,48.50
2018-03-29T17:53:33.737Z,48.64
2018-03-29T17:56:00.232Z,48.57
2018-03-29T17:58:26.603Z,50.20
2018-03-29T18:00:53.019Z,50.30
2018-03-29T18:03:19.427Z,49.90
2018-03-29T18:05:45.873Z,50.40
2018-03-29T18:08:12.280Z,50.11
2018-03-29T18:10:38.734Z,51.06
2018-03-29T18:13:05.149Z,50.00
2018-03-29T18:15:31.560Z,50.96
2018-03-29T18:17:57.965Z,51.01
2018-03-29T18:20:24.366Z,51.63
2018-03-29T18:22:50.786Z,52.08
2018-03-29T18:25:17.222Z,52.95
2018-03-29T18:27:43.625Z,53.46
2018-03-29T18:30:10.033Z,54.13
2018-03-29T18:32:36.493Z,52.25
2018-03-29T18:35:02.957Z,53.12
2018-03-29T18:37:29.382Z,51.73
2018-03-29T18:39:55.780Z,52.56
2018-03-29T18:42:22.206Z,53.10
2018-03-29T18:44:48.666Z,53.43
2018-03-29T18:47:15.037Z,53.58
2018-03-29T18:49:41.564Z,53.70
2018-03-29T18:52:08.038Z,54.37
2018-03-29T18:54:34.422Z,54.89
2018-03-29T18:57:00.806Z,54.77
2018-03-29T18:59:27.214Z,53.92
2018-03-29T19:01:53.641Z,54.42
2018-03-29T19:04:20.146Z,55.13
2018-03-29T19:06:46.515Z,55.12
2018-03-29T19:09:12.933Z,55.00
2018-03-29T19:11:39.349Z,55.32
2018-03-29T19:14:05.751Z,55.00
2018-03-29T19:16:32.185Z,54.48
2018-03-29T19:18:58.603Z,54.65
2018-03-29T19:21:25.080Z,54.64
2018-03-29T19:23:51.562Z,53.77
2018-03-29T19:26:17.997Z,54.42
2018-03-29T19:28:44.481Z,53.50
2018-03-29T19:31:10.902Z,54.31
2018-03-29T19:33:37.330Z,53.30
2018-03-29T19:36:03.757Z,53.31
2018-03-29T19:38:30.198Z,53.29
2018-03-29T19:40:56.610Z,52.63
2018-03-29T19:43:23.078Z,52.97
2018-03-29T19:45:49.522Z,52.41
2018-03-29T19:48:15.927Z,53.04
2018-03-29T19:50:42.419Z,53.36
2018-03-29T19:53:08.873Z,53.83
2018-03-29T19:55:35.298Z,54.02
2018-03-29T19:58:01.701Z,54.81
2018-03-29T20:00:28.119Z,55.11
2018-03-29T20:02:54.554Z,55.22
2018-03-29T20:05:20.959Z,54.80
2018-03-29T20:07:47.394Z,55.01
2018-03-29T20:10:13.834Z,54.30
2018-03-29T20:12:40.248Z,54.77
2018-03-29T20:15:06.691Z,56.34
2018-03-29T20:17:33.149Z,56.23
2018-03-29T20:19:59.616Z,56.00
2018-03-29T20:22:26.024Z,56.54
2018-03-29T20:24:52.404Z,55.64
2018-03-29T20:27:18.800Z,56.16
2018-03-29T20:29:45.208Z,55.43
2018-03-29T20:32:11.617Z,55.82
2018-03-29T20:34:38.069Z,55.90
2018-03-29T20:37:04.413Z,55.95
2018-03-29T20:39:30.798Z,56.52
2018-03-29T20:41:57.334Z,55.65
2018-03-29T20:44:23.823Z,56.25
2018-03-29T20:46:50.253Z,56.33
2018-03-29T20:49:16.642Z,56.92
2018-03-29T20:51:43.069Z,55.84
2018-03-29T20:54:09.545Z,56.54
2018-03-29T20:56:35.910Z,56.64
2018-03-29T20:59:02.274Z,57.32
2018-03-29T21:01:28.706Z,57.46
2018-03-29T21:03:55.142Z,57.79
2018-03-29T21:06:21.550Z,57.21
2018-03-29T21:08:47.982Z,57.27
2018-03-29T21:11:14.405Z,58.20
2018-03-29T21:13:40.786Z,57.37
2018-03-29T21:16:07.225Z,58.35
2018-03-29T21:18:33.613Z,58.26
2018-03-29T21:21:00.010Z,57.93
2018-03-29T21:23:26.624Z,58.09
2018-03-29T21:25:53.028Z,58.60
2018-03-29T21:28:19.485Z,59.35
2018-03-29T21:30:45.910Z,59.63
2018-03-29T21:33:12.322Z,59.30
2018-03-29T21:35:38.751Z,62.90
2018-03-29T21:38:05.168Z,59.72
2018-03-29T21:40:31.659Z,59.97
2018-03-29T21:42:58.092Z,59.93
2018-03-29T21:45:24.479Z,59.75
2018-03-29T21:47:50.895Z,59.85
2018-03-29T21:50:17.344Z,60.18
2018-03-29T21:52:43.901Z,60.17
2018-03-29T21:55:10.301Z,59.70
2018-03-29T21:57:36.721Z,59.98
2018-03-29T22:00:03.207Z,59.58
2018-03-29T22:02:29.734Z,60.02
2018-03-29T22:04:56.161Z,58.91
2018-03-29T22:07:22.522Z,60.08
2018-03-29T22:09:48.910Z,62.05
2018-03-29T22:12:15.318Z,61.05
2018-03-29T22:14:41.698Z,60.63
2018-03-29T22:17:08.078Z,60.64
2018-03-29T22:19:34.481Z,61.24
2018-03-29T22:22:00.931Z,60.68
2018-03-29T22:24:27.335Z,62.18
2018-03-29T22:26:53.810Z,61.69
2018-03-29T22:29:20.250Z,61.69
2018-03-29T22:31:46.667Z,61.74
2018-03-29T22:34:13.117Z,61.62
2018-03-29T22:36:39.606Z,61.53
2018-03-29T22:39:06.076Z,61.60
2018-03-29T22:41:32.499Z,61.62
2018-03-29T22:43:58.942Z,61.65
2018-03-29T22:46:25.334Z,61.37
2018-03-29T22:48:51.810Z,62.08
2018-03-29T22:51:18.247Z,61.92
2018-03-29T22:53:44.738Z,61.93
2018-03-29T22:56:11.205Z,62.01
2018-03-29T22:58:37.573Z,62.31
2018-03-29T23:01:03.997Z,62.23
2018-03-29T23:03:30.401Z,61.61
2018-03-29T23:05:56.774Z,62.73
2018-03-29T23:08:23.177Z,62.89
2018-03-29T23:10:49.605Z,63.38
2018-03-29T23:13:16.062Z,64.23
2018-03-29T23:15:42.444Z,64.35
2018-03-29T23:18:08.878Z,63.42
2018-03-29T23:20:35.305Z,64.13
2018-03-29T23:23:01.762Z,64.35
2018-03-29T23:25:28.187Z,63.60
2018-03-29T23:27:54.649Z,63.89
2018-03-29T23:30:21.054Z,63.71
2018-03-29T23:32:47.413Z,64.14
2018-03-29T23:35:13.789Z,63.38
2018-03-29T23:37:40.210Z,63.03
2018-03-29T23:40:06.581Z,64.22
2018-03-29T23:42:32.966Z,64.08
2018-03-29T23:44:59.365Z,64.49
2018-03-29T23:47:25.766Z,65.23
2018-03-29T23:49:52.186Z,65.33
2018-03-29T23:52:18.626Z,64.70
2018-03-29T23:54:45.020Z,65.38
2018-03-29T23:57:11.461Z,64.10
2018-03-29T23:59:37.887Z,64.93
